Time;durP1;ratioP1;P1;durP2;ratioP2;P2;SDS_P1;SDS_P2;PMS_P1;PMS_P2;Temp;Humidity;BMP_temperature;BMP_pressure;BME280_temperature;BME280_humidity;BME280_pressure;Samples;Min_cycle;Max_cycle;Signal;HPM_P1;HPM_P2
2022/01/19 00:00:49;;;;;;;19.03;12.43;;;;;;;;;;4973953;28;20413;-74
2022/01/19 00:03:15;;;;;;;17.70;12.07;;;;;;;;;;4972087;28;20249;-73
2022/01/19 00:05:40;;;;;;;19.23;12.60;;;;;;;;;;4957239;28;20279;-72
2022/01/19 00:08:06;;;;;;;20.73;12.87;;;;;;;;;;4957176;28;20249;-72
2022/01/19 00:10:34;;;;;;;18.00;11.87;;;;;;;;;;4961628;28;20230;-73
2022/01/19 00:13:00;;;;;;;18.23;11.70;;;;;;;;;;4980233;28;20235;-72
2022/01/19 00:15:27;;;;;;;19.90;12.00;;;;;;;;;;4994970;28;20245;-73
2022/01/19 00:17:56;;;;;;;18.40;11.70;;;;;;;;;;4977461;28;20308;-73
2022/01/19 00:20:23;;;;;;;18.63;12.10;;;;;;;;;;4976986;28;20651;-72
2022/01/19 00:22:52;;;;;;;19.73;12.00;;;;;;;;;;4959816;28;20233;-74
2022/01/19 00:25:22;;;;;;;23.80;12.60;;;;;;;;;;4976361;28;20232;-73
2022/01/19 00:27:50;;;;;;;19.70;12.43;;;;;;;;;;4961359;28;20232;-73
2022/01/19 00:30:18;;;;;;;18.47;12.97;;;;;;;;;;4960157;28;20225;-73
2022/01/19 00:32:46;;;;;;;20.63;13.20;;;;;;;;;;4971201;28;20257;-73
2022/01/19 00:35:14;;;;;;;20.50;13.50;;;;;;;;;;4988392;28;20228;-73
2022/01/19 00:37:42;;;;;;;19.93;13.17;;;;;;;;;;4947429;28;20222;-74
2022/01/19 00:40:09;;;;;;;22.70;14.13;;;;;;;;;;4972551;28;20240;-73
2022/01/19 00:42:37;;;;;;;23.87;13.73;;;;;;;;;;4958317;28;20712;-73
2022/01/19 00:45:05;;;;;;;22.40;14.10;;;;;;;;;;4955678;28;20222;-74
2022/01/19 00:47:31;;;;;;;21.27;13.70;;;;;;;;;;4961457;28;20753;-74
2022/01/19 00:49:59;;;;;;;22.83;13.47;;;;;;;;;;4976081;28;20312;-74
2022/01/19 00:52:27;;;;;;;22.87;14.37;;;;;;;;;;4982747;28;20293;-74
2022/01/19 00:54:52;;;;;;;25.77;13.93;;;;;;;;;;4976031;28;20610;-74
2022/01/19 00:57:18;;;;;;;20.60;13.57;;;;;;;;;;4959365;28;20227;-74
2022/01/19 00:59:44;;;;;;;20.40;13.07;;;;;;;;;;4975321;28;20225;-74
2022/01/19 01:02:12;;;;;;;22.10;13.73;;;;;;;;;;4958586;28;20232;-74
2022/01/19 01:04:40;;;;;;;23.33;13.70;;;;;;;;;;4992065;28;20317;-74
2022/01/19 01:07:06;;;;;;;23.00;13.93;;;;;;;;;;4975083;28;20303;-75
2022/01/19 01:09:34;;;;;;;24.73;14.17;;;;;;;;;;4969233;28;20602;-74
2022/01/19 01:12:10;;;;;;;21.47;13.70;;;;;;;;;;4958930;28;20300;-73
2022/01/19 01:20:10;;;;;;;22.37;13.43;;;;;;;;;;4971987;28;20225;-73
2022/01/19 01:22:38;;;;;;;23.23;12.93;;;;;;;;;;4972258;28;20214;-74
2022/01/19 01:25:05;;;;;;;19.53;12.47;;;;;;;;;;4974839;28;20225;-73
2022/01/19 01:27:34;;;;;;;20.10;13.43;;;;;;;;;;4975067;28;20308;-73
2022/01/19 01:29:59;;;;;;;20.87;13.50;;;;;;;;;;4960020;28;20702;-72
2022/01/19 01:32:25;;;;;;;21.43;12.37;;;;;;;;;;4974359;28;20221;-72
2022/01/19 01:34:55;;;;;;;20.77;11.70;;;;;;;;;;4958560;28;20221;-73
2022/01/19 01:37:23;;;;;;;19.53;11.63;;;;;;;;;;4959971;28;20213;-73
2022/01/19 01:39:50;;;;;;;20.90;12.43;;;;;;;;;;4974267;28;20241;-73
2022/01/19 01:42:19;;;;;;;19.70;12.47;;;;;;;;;;4958096;28;20225;-73
2022/01/19 01:44:48;;;;;;;20.57;11.57;;;;;;;;;;4974900;28;20245;-72
2022/01/19 01:47:17;;;;;;;20.67;11.63;;;;;;;;;;4959388;28;20222;-72
2022/01/19 01:55:18;;;;;;;18.60;11.70;;;;;;;;;;4977675;28;20230;-74
2022/01/19 01:57:46;;;;;;;20.63;12.67;;;;;;;;;;4960827;28;20225;-74
2022/01/19 02:00:20;;;;;;;19.13;12.10;;;;;;;;;;4972688;28;20225;-74
2022/01/19 02:02:46;;;;;;;19.57;12.30;;;;;;;;;;4991192;28;20233;-74
2022/01/19 02:05:15;;;;;;;20.27;11.77;;;;;;;;;;4959454;28;20686;-74
2022/01/19 02:08:02;;;;;;;19.20;12.23;;;;;;;;;;4975348;28;20213;-73
2022/01/19 02:15:54;;;;;;;18.03;11.37;;;;;;;;;;4976469;28;20229;-74
2022/01/19 02:23:53;;;;;;;18.23;11.53;;;;;;;;;;4979731;28;20231;-74
2022/01/19 02:26:32;;;;;;;23.83;12.00;;;;;;;;;;4959326;28;20374;-74
2022/01/19 02:36:33;;;;;;;22.30;12.60;;;;;;;;;;4975974;28;20221;-74
2022/01/19 02:40:35;;;;;;;19.17;12.63;;;;;;;;;;4958192;28;20221;-73
2022/01/19 02:50:42;;;;;;;18.13;11.93;;;;;;;;;;4989363;28;20221;-74
2022/01/19 02:53:12;;;;;;;17.63;11.53;;;;;;;;;;4988602;28;20217;-74
2022/01/19 02:55:41;;;;;;;20.33;12.23;;;;;;;;;;4974037;28;20217;-73
2022/01/19 02:58:09;;;;;;;18.90;11.47;;;;;;;;;;4957637;28;20225;-73
2022/01/19 03:09:04;;;;;;;17.67;11.73;;;;;;;;;;4956417;28;20225;-74
2022/01/19 03:11:30;;;;;;;22.80;12.67;;;;;;;;;;4972556;28;20214;-74
2022/01/19 03:13:55;;;;;;;20.80;12.37;;;;;;;;;;4972852;28;20232;-73
2022/01/19 03:16:26;;;;;;;22.63;12.00;;;;;;;;;;4973232;28;20677;-74
2022/01/19 03:18:52;;;;;;;18.03;12.30;;;;;;;;;;4958276;28;20217;-73
2022/01/19 03:21:17;;;;;;;19.07;12.50;;;;;;;;;;4972708;28;20300;-73
2022/01/19 03:23:46;;;;;;;19.80;11.60;;;;;;;;;;4958574;28;20286;-73
2022/01/19 03:26:12;;;;;;;19.33;12.47;;;;;;;;;;4950532;28;20954;-73
2022/01/19 03:29:02;;;;;;;20.60;11.77;;;;;;;;;;4975971;28;20279;-73
2022/01/19 03:31:28;;;;;;;21.23;12.33;;;;;;;;;;4988557;28;20764;-73
2022/01/19 03:33:53;;;;;;;16.20;11.87;;;;;;;;;;4957978;28;20225;-73
2022/01/19 03:36:22;;;;;;;20.07;12.47;;;;;;;;;;4957320;28;20716;-73
2022/01/19 03:38:52;;;;;;;20.83;12.73;;;;;;;;;;4958910;28;20368;-73
2022/01/19 03:41:20;;;;;;;20.00;12.57;;;;;;;;;;4957103;28;20224;-74
2022/01/19 03:43:46;;;;;;;23.30;13.37;;;;;;;;;;4957186;28;20229;-73
2022/01/19 03:46:29;;;;;;;18.53;12.60;;;;;;;;;;4975529;28;20283;-74
2022/01/19 03:48:57;;;;;;;20.80;12.63;;;;;;;;;;4962774;28;20670;-74
2022/01/19 03:51:25;;;;;;;21.23;12.03;;;;;;;;;;4976770;28;20331;-74
2022/01/19 03:53:52;;;;;;;20.27;12.77;;;;;;;;;;4977358;28;20410;-74
2022/01/19 03:56:17;;;;;;;19.80;12.53;;;;;;;;;;4961662;28;20323;-73
2022/01/19 03:58:43;;;;;;;20.70;13.10;;;;;;;;;;4993087;28;20219;-74
2022/01/19 04:01:14;;;;;;;20.40;13.00;;;;;;;;;;4976157;28;20229;-73
2022/01/19 04:06:25;;;;;;;20.30;13.27;;;;;;;;;;4977388;28;20638;-73
2022/01/19 04:08:53;;;;;;;22.37;13.80;;;;;;;;;;4962608;28;20236;-73
2022/01/19 04:11:22;;;;;;;19.50;12.33;;;;;;;;;;4976064;28;20225;-73
2022/01/19 04:16:23;;;;;;;23.87;13.80;;;;;;;;;;4960911;28;20222;-73
2022/01/19 04:18:59;;;;;;;25.53;14.47;;;;;;;;;;4946162;28;20675;-74
2022/01/19 04:21:29;;;;;;;23.10;13.87;;;;;;;;;;4979598;28;20279;-76
2022/01/19 04:23:55;;;;;;;28.37;15.00;;;;;;;;;;4976287;28;20237;-73
2022/01/19 04:26:22;;;;;;;25.23;14.30;;;;;;;;;;4975207;28;20248;-74
2022/01/19 04:28:49;;;;;;;21.80;14.60;;;;;;;;;;4976071;28;20301;-72
2022/01/19 04:31:14;;;;;;;20.87;14.57;;;;;;;;;;4979069;28;20216;-72
2022/01/19 04:33:43;;;;;;;26.10;15.23;;;;;;;;;;4978227;28;20300;-72
2022/01/19 04:39:26;;;;;;;25.77;15.70;;;;;;;;;;4955246;28;20233;-72
2022/01/19 05:04:48;;;;;;;32.27;19.47;;;;;;;;;;4977637;28;20708;-73
2022/01/19 05:07:43;;;;;;;30.43;19.80;;;;;;;;;;4976922;28;20229;-72
2022/01/19 05:15:45;;;;;;;29.70;19.87;;;;;;;;;;4991217;28;20599;-72
2022/01/19 05:18:17;;;;;;;32.53;20.33;;;;;;;;;;4959561;28;20241;-72
2022/01/19 05:20:48;;;;;;;38.83;21.23;;;;;;;;;;4975795;28;20213;-73
2022/01/19 05:23:36;;;;;;;32.00;20.83;;;;;;;;;;4977749;28;20731;-74
2022/01/19 05:26:07;;;;;;;32.47;22.00;;;;;;;;;;4975230;28;20603;-73
2022/01/19 05:28:38;;;;;;;33.00;21.03;;;;;;;;;;4975677;28;20225;-74
2022/01/19 05:31:06;;;;;;;35.43;21.93;;;;;;;;;;4958792;28;20237;-73
2022/01/19 05:33:32;;;;;;;37.17;22.03;;;;;;;;;;4974273;28;20218;-74
2022/01/19 05:36:01;;;;;;;37.23;21.43;;;;;;;;;;4974293;28;20232;-73
2022/01/19 05:38:57;;;;;;;35.17;21.57;;;;;;;;;;4995379;28;20228;-72
2022/01/19 05:41:47;;;;;;;35.50;21.97;;;;;;;;;;4963875;28;20300;-73
2022/01/19 05:44:15;;;;;;;38.87;22.87;;;;;;;;;;4991142;28;20225;-74
2022/01/19 05:46:40;;;;;;;34.87;22.47;;;;;;;;;;4958853;28;20717;-73
2022/01/19 05:49:06;;;;;;;34.53;21.33;;;;;;;;;;4992178;28;20229;-73
2022/01/19 05:51:35;;;;;;;37.70;21.80;;;;;;;;;;4973133;28;20297;-73
2022/01/19 05:54:01;;;;;;;35.10;21.30;;;;;;;;;;4974827;28;20221;-72
2022/01/19 05:56:29;;;;;;;34.00;21.30;;;;;;;;;;4989948;28;20258;-73
2022/01/19 05:59:16;;;;;;;36.87;20.43;;;;;;;;;;4990571;28;20221;-73
2022/01/19 06:01:42;;;;;;;31.50;20.90;;;;;;;;;;4974011;28;20304;-73
2022/01/19 06:04:12;;;;;;;40.30;21.87;;;;;;;;;;4974172;28;20233;-73
2022/01/19 06:06:56;;;;;;;40.40;21.90;;;;;;;;;;4963255;28;20749;-73
2022/01/19 06:10:01;;;;;;;40.00;21.53;;;;;;;;;;4956168;28;20226;-73
2022/01/19 06:12:29;;;;;;;45.73;23.97;;;;;;;;;;4958879;28;20233;-72
2022/01/19 06:14:59;;;;;;;70.80;40.20;;;;;;;;;;4974513;28;20660;-72
2022/01/19 06:17:26;;;;;;;47.93;28.93;;;;;;;;;;4974173;28;20312;-75
2022/01/19 06:19:55;;;;;;;42.47;23.67;;;;;;;;;;4974277;28;20213;-74
2022/01/19 06:22:23;;;;;;;42.10;23.40;;;;;;;;;;4973444;28;20225;-74
2022/01/19 06:24:49;;;;;;;47.70;23.97;;;;;;;;;;4971963;28;20224;-74
2022/01/19 06:27:17;;;;;;;40.10;23.23;;;;;;;;;;4972629;28;20655;-74
2022/01/19 06:29:46;;;;;;;47.57;23.47;;;;;;;;;;4955904;28;20305;-74
2022/01/19 06:32:13;;;;;;;39.43;23.17;;;;;;;;;;4954223;28;20218;-74
2022/01/19 06:34:39;;;;;;;43.30;24.03;;;;;;;;;;4952320;28;20237;-74
2022/01/19 06:37:27;;;;;;;43.43;23.17;;;;;;;;;;4944024;28;20226;-73
2022/01/19 06:40:13;;;;;;;47.60;25.57;;;;;;;;;;4957397;28;20722;-73
2022/01/19 06:42:44;;;;;;;45.43;24.20;;;;;;;;;;4987233;28;20309;-74
2022/01/19 06:45:12;;;;;;;45.17;24.07;;;;;;;;;;4989639;28;20669;-72
2022/01/19 06:47:37;;;;;;;44.37;23.27;;;;;;;;;;4943463;28;20221;-72
2022/01/19 06:50:05;;;;;;;48.43;23.57;;;;;;;;;;4973921;28;20214;-72
2022/01/19 06:52:34;;;;;;;44.70;23.23;;;;;;;;;;4960109;28;20218;-72
2022/01/19 06:55:03;;;;;;;44.97;23.47;;;;;;;;;;4974909;28;20774;-72
2022/01/19 06:57:28;;;;;;;55.90;24.70;;;;;;;;;;4957905;28;20225;-72
2022/01/19 07:00:13;;;;;;;57.13;25.13;;;;;;;;;;4970089;28;20624;-74
2022/01/19 07:02:57;;;;;;;55.97;25.10;;;;;;;;;;4956854;28;20301;-73
2022/01/19 07:05:36;;;;;;;50.90;25.90;;;;;;;;;;4987937;28;20230;-73
2022/01/19 07:08:18;;;;;;;51.77;25.90;;;;;;;;;;4974746;28;20234;-73
2022/01/19 07:10:44;;;;;;;55.00;25.67;;;;;;;;;;4960147;28;20244;-73
2022/01/19 07:13:10;;;;;;;51.33;25.47;;;;;;;;;;4973603;28;20308;-74
2022/01/19 07:15:40;;;;;;;61.27;26.17;;;;;;;;;;4974091;28;20226;-74
2022/01/19 07:18:06;;;;;;;46.43;24.03;;;;;;;;;;4957934;28;20241;-74
2022/01/19 07:20:32;;;;;;;54.57;24.70;;;;;;;;;;4972982;28;20229;-72
2022/01/19 07:23:01;;;;;;;47.53;22.47;;;;;;;;;;4973796;28;20237;-73
2022/01/19 07:25:31;;;;;;;42.57;22.97;;;;;;;;;;4989801;28;20243;-72
2022/01/19 07:27:57;;;;;;;53.13;23.07;;;;;;;;;;4974314;28;20363;-73
2022/01/19 07:30:24;;;;;;;48.80;23.23;;;;;;;;;;4972950;28;20221;-72
2022/01/19 07:32:51;;;;;;;47.63;20.00;;;;;;;;;;4958135;28;20221;-72
2022/01/19 07:35:17;;;;;;;47.60;22.00;;;;;;;;;;4973388;28;20675;-73
2022/01/19 07:37:46;;;;;;;42.73;21.40;;;;;;;;;;4973829;28;20220;-72
2022/01/19 07:40:17;;;;;;;44.90;22.17;;;;;;;;;;4972787;28;20228;-72
2022/01/19 07:42:49;;;;;;;55.37;22.87;;;;;;;;;;4973557;28;20610;-72
2022/01/19 07:45:50;;;;;;;48.77;21.50;;;;;;;;;;4962753;28;20229;-72
2022/01/19 07:48:37;;;;;;;57.57;22.57;;;;;;;;;;4976496;28;20725;-74
2022/01/19 07:51:32;;;;;;;51.40;22.77;;;;;;;;;;4962713;28;20217;-72
2022/01/19 07:54:08;;;;;;;52.30;21.80;;;;;;;;;;4956492;28;20221;-74
2022/01/19 07:56:56;;;;;;;57.67;23.83;;;;;;;;;;4989932;28;20226;-73
2022/01/19 07:59:42;;;;;;;54.37;23.47;;;;;;;;;;4962632;28;20588;-73
2022/01/19 08:02:13;;;;;;;56.97;24.00;;;;;;;;;;4973196;28;20249;-74
2022/01/19 08:05:00;;;;;;;56.70;23.93;;;;;;;;;;4987155;28;20285;-73
2022/01/19 08:07:28;;;;;;;53.23;22.83;;;;;;;;;;4961280;28;20312;-74
2022/01/19 08:09:56;;;;;;;57.83;24.13;;;;;;;;;;4966836;28;20222;-73
2022/01/19 08:12:25;;;;;;;56.00;23.43;;;;;;;;;;4988327;28;20214;-74
2022/01/19 08:14:51;;;;;;;59.27;22.63;;;;;;;;;;4937493;28;20218;-74
2022/01/19 08:17:26;;;;;;;59.20;23.50;;;;;;;;;;4967957;28;20210;-73
2022/01/19 08:19:58;;;;;;;49.10;23.23;;;;;;;;;;4969819;28;20586;-72
2022/01/19 08:22:24;;;;;;;62.97;24.13;;;;;;;;;;4960515;28;20224;-73
2022/01/19 08:25:11;;;;;;;57.20;26.57;;;;;;;;;;4985876;28;20283;-72
2022/01/19 08:27:39;;;;;;;62.27;26.70;;;;;;;;;;4951113;28;20231;-73
2022/01/19 08:30:09;;;;;;;46.73;23.10;;;;;;;;;;4936384;28;20273;-72
2022/01/19 08:32:35;;;;;;;55.20;23.23;;;;;;;;;;4973023;28;20241;-71
2022/01/19 08:35:27;;;;;;;47.83;22.23;;;;;;;;;;4955002;28;20703;-72
2022/01/19 08:37:55;;;;;;;50.50;21.53;;;;;;;;;;4992622;28;20225;-72
2022/01/19 08:40:26;;;;;;;46.73;21.70;;;;;;;;;;4960133;28;20225;-74
2022/01/19 08:42:59;;;;;;;46.90;21.37;;;;;;;;;;4971626;28;20225;-73
2022/01/19 08:45:25;;;;;;;46.17;21.20;;;;;;;;;;4973326;28;20229;-72
2022/01/19 08:47:51;;;;;;;46.17;22.30;;;;;;;;;;4968763;28;20222;-73
2022/01/19 08:50:27;;;;;;;45.73;20.37;;;;;;;;;;4971696;28;20217;-74
2022/01/19 08:53:17;;;;;;;39.47;19.67;;;;;;;;;;4988312;28;20252;-72
2022/01/19 08:55:56;;;;;;;32.93;18.10;;;;;;;;;;4970640;28;20741;-73
2022/01/19 08:58:24;;;;;;;38.63;18.97;;;;;;;;;;4980322;28;20212;-73
2022/01/19 09:00:52;;;;;;;34.10;16.93;;;;;;;;;;4989399;28;20385;-74
2022/01/19 09:03:18;;;;;;;33.07;17.03;;;;;;;;;;4959632;28;20225;-74
2022/01/19 09:05:46;;;;;;;29.03;16.73;;;;;;;;;;4971282;28;20284;-74
2022/01/19 09:08:12;;;;;;;25.13;14.93;;;;;;;;;;4983871;28;20221;-75
2022/01/19 09:10:40;;;;;;;24.10;14.40;;;;;;;;;;5000123;28;20221;-74
2022/01/19 09:13:05;;;;;;;23.23;14.70;;;;;;;;;;4983364;28;20726;-74
2022/01/19 09:15:36;;;;;;;19.97;12.93;;;;;;;;;;4965381;28;20225;-75
2022/01/19 09:18:01;;;;;;;22.77;14.23;;;;;;;;;;4980586;28;20597;-72
2022/01/19 09:20:27;;;;;;;22.70;14.40;;;;;;;;;;4973116;28;20225;-73
2022/01/19 09:22:57;;;;;;;20.43;13.03;;;;;;;;;;4974658;28;20585;-73
2022/01/19 09:25:25;;;;;;;25.37;13.97;;;;;;;;;;4989373;28;20238;-74
2022/01/19 09:27:51;;;;;;;21.43;13.97;;;;;;;;;;4975656;28;20703;-74
2022/01/19 09:30:19;;;;;;;20.70;12.43;;;;;;;;;;4991609;28;20229;-73
2022/01/19 09:32:55;;;;;;;20.07;11.87;;;;;;;;;;4991463;28;20221;-75
2022/01/19 09:35:25;;;;;;;20.70;11.83;;;;;;;;;;4976706;28;20229;-73
2022/01/19 09:37:51;;;;;;;20.63;12.70;;;;;;;;;;4976349;28;20225;-74
2022/01/19 09:40:17;;;;;;;24.83;15.20;;;;;;;;;;4975523;28;20241;-74
2022/01/19 09:42:46;;;;;;;53.80;29.33;;;;;;;;;;4975561;28;20313;-73
2022/01/19 09:45:13;;;;;;;25.53;14.83;;;;;;;;;;4959184;28;20233;-75
2022/01/19 09:47:41;;;;;;;21.70;14.30;;;;;;;;;;4992161;28;20321;-72
2022/01/19 09:50:07;;;;;;;19.97;13.00;;;;;;;;;;4977213;28;20233;-72
2022/01/19 09:52:37;;;;;;;18.30;13.23;;;;;;;;;;4976130;28;20305;-73
2022/01/19 09:55:06;;;;;;;20.37;12.80;;;;;;;;;;4974268;28;20229;-73
2022/01/19 09:57:35;;;;;;;20.57;14.30;;;;;;;;;;4975568;28;20875;-73
2022/01/19 10:00:00;;;;;;;22.17;14.20;;;;;;;;;;4977409;28;20847;-74
2022/01/19 10:02:26;;;;;;;22.53;15.47;;;;;;;;;;4991898;28;20333;-72
2022/01/19 10:04:52;;;;;;;22.73;15.53;;;;;;;;;;4976241;28;20591;-73
2022/01/19 10:07:22;;;;;;;19.70;13.40;;;;;;;;;;4991926;28;20725;-73
2022/01/19 10:09:54;;;;;;;19.63;14.37;;;;;;;;;;4943952;28;20356;-74
2022/01/19 10:18:25;;;;;;;18.90;12.63;;;;;;;;;;4992966;28;20225;-73
2022/01/19 10:21:16;;;;;;;18.87;13.73;;;;;;;;;;4967072;28;20235;-73
2022/01/19 10:23:48;;;;;;;21.50;13.47;;;;;;;;;;4997931;28;20316;-74
2022/01/19 10:26:15;;;;;;;21.40;14.80;;;;;;;;;;4990806;28;20229;-75
2022/01/19 10:29:03;;;;;;;19.03;13.40;;;;;;;;;;4975509;28;20224;-74
2022/01/19 10:31:34;;;;;;;18.93;14.67;;;;;;;;;;4974384;28;20262;-73
2022/01/19 10:34:22;;;;;;;17.97;12.97;;;;;;;;;;4958035;28;20760;-75
2022/01/19 10:36:49;;;;;;;18.97;14.33;;;;;;;;;;4976893;28;20221;-74
2022/01/19 10:39:16;;;;;;;22.37;15.77;;;;;;;;;;4987593;28;20218;-74
2022/01/19 10:41:58;;;;;;;22.53;16.80;;;;;;;;;;4971605;28;20218;-74
2022/01/19 10:44:34;;;;;;;21.10;15.20;;;;;;;;;;4965154;28;20287;-73
2022/01/19 10:47:07;;;;;;;22.47;17.77;;;;;;;;;;4994502;28;20674;-74
2022/01/19 10:49:58;;;;;;;21.70;16.20;;;;;;;;;;5005174;28;20363;-77
2022/01/19 10:52:34;;;;;;;23.53;17.10;;;;;;;;;;4990251;28;20228;-78
2022/01/19 10:55:01;;;;;;;24.50;17.03;;;;;;;;;;4975083;28;20229;-75
2022/01/19 10:57:30;;;;;;;24.20;18.77;;;;;;;;;;4979595;28;20220;-74
2022/01/19 11:00:15;;;;;;;26.23;18.47;;;;;;;;;;4982393;28;20308;-75
2022/01/19 11:02:41;;;;;;;26.93;19.27;;;;;;;;;;4960896;28;20702;-76
2022/01/19 11:05:06;;;;;;;23.87;17.63;;;;;;;;;;4973608;28;20244;-75
2022/01/19 11:07:36;;;;;;;29.33;20.07;;;;;;;;;;4987333;28;20229;-75
2022/01/19 11:10:13;;;;;;;33.87;23.63;;;;;;;;;;4977434;28;20221;-75
2022/01/19 11:12:49;;;;;;;32.63;22.77;;;;;;;;;;4953185;28;20209;-75
2022/01/19 11:15:22;;;;;;;28.80;21.07;;;;;;;;;;4972947;28;20246;-76
2022/01/19 11:17:50;;;;;;;28.77;20.30;;;;;;;;;;4990295;28;20221;-75
2022/01/19 11:20:18;;;;;;;26.67;19.83;;;;;;;;;;4958103;28;20241;-74
2022/01/19 11:23:03;;;;;;;26.67;20.90;;;;;;;;;;4975678;28;20245;-76
2022/01/19 11:25:55;;;;;;;29.73;21.17;;;;;;;;;;4953838;28;20318;-73
2022/01/19 11:28:34;;;;;;;27.63;21.37;;;;;;;;;;4973256;28;20213;-74
2022/01/19 11:31:10;;;;;;;28.30;21.20;;;;;;;;;;4974914;28;20311;-75
2022/01/19 11:33:47;;;;;;;30.80;21.80;;;;;;;;;;4958839;28;20239;-73
2022/01/19 11:36:26;;;;;;;30.40;23.17;;;;;;;;;;4990215;28;20310;-73
2022/01/19 11:38:52;;;;;;;31.20;23.50;;;;;;;;;;4990123;28;20327;-74
2022/01/19 11:41:17;;;;;;;30.07;23.30;;;;;;;;;;4973342;28;20233;-73
2022/01/19 11:43:56;;;;;;;29.50;23.00;;;;;;;;;;4989839;28;20311;-76
2022/01/19 11:46:48;;;;;;;32.40;23.13;;;;;;;;;;4973914;28;20229;-74
2022/01/19 11:49:18;;;;;;;30.97;24.00;;;;;;;;;;4973944;28;20223;-74
2022/01/19 11:51:54;;;;;;;30.93;24.30;;;;;;;;;;4973632;28;20225;-74
2022/01/19 11:54:33;;;;;;;30.53;23.53;;;;;;;;;;4970689;28;20743;-76
2022/01/19 11:56:58;;;;;;;33.60;25.20;;;;;;;;;;4971372;28;20230;-74
2022/01/19 11:59:30;;;;;;;30.83;24.17;;;;;;;;;;4990227;28;20225;-75
2022/01/19 12:02:20;;;;;;;33.40;25.73;;;;;;;;;;4954984;28;20218;-74
2022/01/19 12:04:54;;;;;;;29.33;23.73;;;;;;;;;;5007867;28;20279;-73
2022/01/19 12:07:39;;;;;;;33.90;26.00;;;;;;;;;;4962343;28;20212;-72
2022/01/19 12:10:14;;;;;;;32.40;24.77;;;;;;;;;;5004233;28;20231;-74
2022/01/19 12:13:07;;;;;;;31.97;24.93;;;;;;;;;;5014038;28;20753;-74
2022/01/19 12:15:58;;;;;;;32.10;25.57;;;;;;;;;;4961788;28;20230;-74
2022/01/19 12:18:54;;;;;;;26.10;20.90;;;;;;;;;;4975193;28;20280;-73
2022/01/19 12:21:31;;;;;;;30.20;23.50;;;;;;;;;;4972587;28;20233;-73
2022/01/19 12:24:25;;;;;;;28.87;23.67;;;;;;;;;;4993630;28;20229;-72
2022/01/19 12:26:58;;;;;;;30.27;23.83;;;;;;;;;;4992670;28;20568;-73
2022/01/19 12:29:38;;;;;;;29.60;24.67;;;;;;;;;;4985575;28;20274;-73
2022/01/19 12:32:16;;;;;;;31.53;24.40;;;;;;;;;;5002590;28;20236;-73
2022/01/19 12:34:41;;;;;;;29.97;23.57;;;;;;;;;;5000937;28;20253;-72
2022/01/19 12:37:07;;;;;;;34.60;25.03;;;;;;;;;;4996022;28;20252;-73
2022/01/19 12:39:34;;;;;;;31.50;24.93;;;;;;;;;;4973112;28;20234;-74
2022/01/19 12:42:25;;;;;;;29.27;22.50;;;;;;;;;;4980567;28;20679;-73
2022/01/19 12:44:53;;;;;;;28.10;21.50;;;;;;;;;;4980893;28;20286;-74
2022/01/19 12:47:24;;;;;;;27.00;23.07;;;;;;;;;;4980217;28;20280;-74
2022/01/19 12:49:54;;;;;;;29.57;23.63;;;;;;;;;;4996953;28;20268;-73
2022/01/19 12:52:22;;;;;;;29.23;23.13;;;;;;;;;;4985985;28;20213;-73
2022/01/19 12:54:48;;;;;;;32.00;25.30;;;;;;;;;;4982650;28;20290;-73
2022/01/19 12:57:19;;;;;;;29.50;22.97;;;;;;;;;;4983778;28;20280;-72
2022/01/19 12:59:46;;;;;;;31.03;23.03;;;;;;;;;;4988625;28;20224;-73
2022/01/19 13:02:14;;;;;;;33.83;25.07;;;;;;;;;;4986776;28;20231;-72
2022/01/19 13:04:46;;;;;;;30.17;23.20;;;;;;;;;;4990780;28;20634;-76
2022/01/19 13:07:22;;;;;;;36.50;25.50;;;;;;;;;;4975949;28;20260;-72
2022/01/19 13:10:05;;;;;;;33.47;24.23;;;;;;;;;;4976055;28;20304;-73
2022/01/19 13:12:36;;;;;;;31.83;24.53;;;;;;;;;;4997557;28;20229;-73
2022/01/19 13:15:04;;;;;;;37.70;23.57;;;;;;;;;;4953729;28;20253;-72
2022/01/19 13:17:47;;;;;;;30.30;24.10;;;;;;;;;;4970685;28;20251;-73
2022/01/19 13:20:24;;;;;;;34.67;26.33;;;;;;;;;;4965516;28;20317;-73
2022/01/19 13:22:51;;;;;;;34.20;25.23;;;;;;;;;;4998420;28;20228;-72
2022/01/19 13:25:27;;;;;;;34.87;25.20;;;;;;;;;;4986628;28;20719;-74
2022/01/19 13:27:55;;;;;;;38.00;26.37;;;;;;;;;;4992359;28;20213;-74
2022/01/19 13:30:24;;;;;;;38.03;27.17;;;;;;;;;;4975463;28;20225;-73
2022/01/19 13:32:50;;;;;;;32.50;23.57;;;;;;;;;;4955919;28;20218;-73
2022/01/19 13:35:16;;;;;;;36.63;27.77;;;;;;;;;;4956379;28;20230;-74
2022/01/19 13:37:51;;;;;;;36.83;26.97;;;;;;;;;;4995088;28;20777;-74
2022/01/19 13:40:25;;;;;;;36.73;27.97;;;;;;;;;;4975597;28;20304;-73
2022/01/19 13:42:59;;;;;;;34.60;25.63;;;;;;;;;;4975215;28;20324;-73
2022/01/19 13:45:35;;;;;;;46.00;31.33;;;;;;;;;;4976113;28;20717;-74
2022/01/19 13:50:59;;;;;;;36.10;27.23;;;;;;;;;;4961290;28;20219;-74
2022/01/19 13:53:34;;;;;;;38.83;28.50;;;;;;;;;;4979056;28;20227;-74
2022/01/19 13:56:04;;;;;;;35.93;26.07;;;;;;;;;;5001210;28;20609;-73
2022/01/19 13:58:43;;;;;;;44.20;30.03;;;;;;;;;;4987413;28;20218;-73
2022/01/19 14:01:13;;;;;;;38.30;30.03;;;;;;;;;;4980140;28;20344;-74
2022/01/19 14:03:52;;;;;;;37.63;27.03;;;;;;;;;;4975442;28;20638;-73
2022/01/19 14:06:25;;;;;;;43.33;29.37;;;;;;;;;;4975188;28;20248;-73
2022/01/19 14:09:08;;;;;;;46.40;30.87;;;;;;;;;;4986962;28;20221;-72
2022/01/19 14:11:37;;;;;;;38.70;29.13;;;;;;;;;;4992257;28;20225;-74
2022/01/19 14:14:14;;;;;;;38.27;28.03;;;;;;;;;;4991391;28;20213;-73
2022/01/19 14:16:47;;;;;;;42.73;31.17;;;;;;;;;;4983917;28;20308;-73
2022/01/19 14:19:28;;;;;;;63.73;37.90;;;;;;;;;;4983782;28;20221;-72
2022/01/19 14:22:03;;;;;;;58.73;36.20;;;;;;;;;;4978865;28;20812;-73
2022/01/19 14:24:44;;;;;;;92.10;49.47;;;;;;;;;;4997974;28;20251;-74
2022/01/19 14:27:16;;;;;;;58.00;36.43;;;;;;;;;;4988147;28;20253;-73
2022/01/19 14:29:54;;;;;;;34.97;27.33;;;;;;;;;;4990625;28;20317;-73
2022/01/19 14:32:34;;;;;;;36.53;25.97;;;;;;;;;;5001702;28;20229;-72
2022/01/19 14:35:00;;;;;;;33.87;25.23;;;;;;;;;;4989835;28;20233;-73
2022/01/19 14:37:30;;;;;;;35.77;25.27;;;;;;;;;;4997490;28;20264;-72
2022/01/19 14:40:01;;;;;;;37.23;25.40;;;;;;;;;;4984341;28;20227;-75
2022/01/19 14:42:37;;;;;;;35.73;24.17;;;;;;;;;;4981888;28;20228;-73
2022/01/19 14:45:25;;;;;;;32.90;25.10;;;;;;;;;;4969353;28;20234;-73
2022/01/19 14:47:54;;;;;;;34.43;23.47;;;;;;;;;;4958868;28;20281;-72
2022/01/19 14:50:35;;;;;;;32.47;24.07;;;;;;;;;;4955336;28;20230;-74
2022/01/19 14:53:01;;;;;;;36.30;24.63;;;;;;;;;;4989365;28;20229;-73
2022/01/19 14:55:31;;;;;;;39.00;26.30;;;;;;;;;;4959246;28;20229;-73
2022/01/19 14:58:00;;;;;;;40.63;26.90;;;;;;;;;;4990708;28;20217;-73
2022/01/19 15:00:31;;;;;;;35.23;25.17;;;;;;;;;;4990792;28;20877;-74
2022/01/19 15:03:00;;;;;;;39.70;27.77;;;;;;;;;;4992386;28;20222;-73
2022/01/19 15:05:31;;;;;;;41.80;27.57;;;;;;;;;;4992267;28;20241;-74
2022/01/19 15:07:59;;;;;;;40.27;27.23;;;;;;;;;;4974476;28;20221;-74
2022/01/19 15:10:25;;;;;;;43.50;28.90;;;;;;;;;;4958367;28;20244;-73
2022/01/19 15:12:56;;;;;;;44.13;29.93;;;;;;;;;;4973599;28;20228;-75
2022/01/19 15:15:28;;;;;;;45.03;27.97;;;;;;;;;;4973428;28;20221;-73
2022/01/19 15:17:57;;;;;;;50.50;31.23;;;;;;;;;;4973730;28;20217;-73
2022/01/19 15:20:29;;;;;;;50.47;31.53;;;;;;;;;;4957975;28;20830;-74
2022/01/19 15:22:59;;;;;;;44.00;29.07;;;;;;;;;;4974169;28;20279;-74
2022/01/19 15:25:29;;;;;;;41.43;28.93;;;;;;;;;;4989329;28;20226;-73
2022/01/19 15:27:58;;;;;;;38.67;25.10;;;;;;;;;;4958242;28;20233;-73
2022/01/19 15:30:25;;;;;;;42.20;28.70;;;;;;;;;;4989202;28;20288;-73
2022/01/19 15:32:53;;;;;;;42.73;27.23;;;;;;;;;;4988370;28;20213;-73
2022/01/19 15:35:24;;;;;;;34.80;22.53;;;;;;;;;;4989088;28;20226;-73
2022/01/19 15:37:51;;;;;;;40.27;26.40;;;;;;;;;;4989795;28;20229;-73
2022/01/19 15:40:19;;;;;;;41.40;27.70;;;;;;;;;;4974590;28;20231;-73
2022/01/19 15:42:48;;;;;;;41.93;27.70;;;;;;;;;;4960933;28;20308;-72
2022/01/19 15:45:18;;;;;;;39.83;26.53;;;;;;;;;;4979239;28;20221;-73
2022/01/19 15:47:44;;;;;;;36.50;24.57;;;;;;;;;;4977585;28;20225;-72
2022/01/19 15:50:12;;;;;;;37.43;25.43;;;;;;;;;;4993144;28;20236;-74
2022/01/19 15:52:43;;;;;;;34.37;24.03;;;;;;;;;;4977484;28;20601;-74
2022/01/19 15:55:08;;;;;;;34.33;22.67;;;;;;;;;;4978163;28;20229;-74
2022/01/19 15:57:39;;;;;;;34.27;23.47;;;;;;;;;;4974186;28;20715;-71
2022/01/19 16:00:06;;;;;;;33.77;22.70;;;;;;;;;;4975750;28;20221;-72
2022/01/19 16:02:42;;;;;;;35.90;24.67;;;;;;;;;;4977596;28;20351;-72
2022/01/19 16:05:08;;;;;;;31.40;22.63;;;;;;;;;;4963115;28;20230;-72
2022/01/19 16:07:39;;;;;;;35.47;24.40;;;;;;;;;;4968528;28;20691;-72
2022/01/19 16:10:05;;;;;;;34.23;23.67;;;;;;;;;;4983533;28;20285;-73
2022/01/19 16:12:30;;;;;;;36.77;24.03;;;;;;;;;;4983280;28;20308;-71
2022/01/19 16:14:58;;;;;;;31.40;22.07;;;;;;;;;;4960992;28;20232;-72